createdAt,value
2022-08-12T00:00:09.265Z,101955.97
2022-08-12T00:03:29.745Z,101961.63
2022-08-12T00:06:52.072Z,101963.47
2022-08-12T00:10:12.633Z,101965.28
2022-08-12T00:13:32.874Z,101957.59
2022-08-12T00:16:53.343Z,101950.13
2022-08-12T00:20:13.181Z,101950.78
2022-08-12T00:23:33.574Z,101958.53
2022-08-12T00:26:54.104Z,101957.81
2022-08-12T00:30:15.122Z,101951.94
2022-08-12T00:33:51.679Z,101956.13
2022-08-12T00:37:14.453Z,101956.47
2022-08-12T00:40:35.048Z,101961.66
2022-08-12T00:43:36.973Z,101954.06
2022-08-12T00:46:49.494Z,101953.69
2022-08-12T00:49:51.428Z,101954.88
2022-08-12T00:52:53.096Z,101945.34
2022-08-12T00:59:03.050Z,101952.47
2022-08-12T01:02:11.196Z,101954.28
2022-08-12T01:05:38.018Z,101949.88
2022-08-12T01:08:58.388Z,101951.72
2022-08-12T01:12:00.496Z,101951.97
2022-08-12T01:15:02.894Z,101952.94
2022-08-12T01:18:05.766Z,101959.31
2022-08-12T01:21:19.370Z,101945.09
2022-08-12T01:24:48.367Z,101951.72
2022-08-12T01:27:53.200Z,101946.00
2022-08-12T01:30:57.241Z,101944.63
2022-08-12T01:34:28.658Z,101953.09
2022-08-12T01:37:42.415Z,101950.63
2022-08-12T01:40:47.128Z,101945.34
2022-08-12T01:43:50.632Z,101945.34
2022-08-12T01:47:34.332Z,101947.53
2022-08-12T01:51:05.307Z,101939.84
2022-08-12T01:54:21.808Z,101937.66
2022-08-12T01:57:58.403Z,101935.31
2022-08-12T02:01:03.718Z,101937.38
2022-08-12T02:04:40.679Z,101939.44
2022-08-12T02:08:15.139Z,101937.25
2022-08-12T02:11:23.274Z,101942.09
2022-08-12T02:14:30.846Z,101931.44
2022-08-12T02:17:55.652Z,101933.53
2022-08-12T02:21:05.758Z,101931.06
2022-08-12T02:24:13.346Z,101932.16
2022-08-12T02:27:17.420Z,101930.69
2022-08-12T02:30:21.389Z,101930.06
2022-08-12T02:33:24.015Z,101928.59
2022-08-12T02:36:27.836Z,101923.56
2022-08-12T02:39:37.223Z,101933.56
2022-08-12T02:42:44.156Z,101935.66
2022-08-12T02:46:14.789Z,101926.94
2022-08-12T02:49:29.641Z,101922.94
2022-08-12T02:52:33.022Z,101935.88
2022-08-12T02:55:36.557Z,101931.56
2022-08-12T02:58:41.276Z,101926.53
2022-08-12T03:01:50.417Z,101927.63
2022-08-12T03:04:56.738Z,101922.59
2022-08-12T03:08:04.522Z,101922.94
2022-08-12T03:11:15.174Z,101921.47
2022-08-12T03:14:20.466Z,101920.81
2022-08-12T03:17:36.552Z,101914.84
2022-08-12T03:20:40.295Z,101911.50
2022-08-12T03:23:42.476Z,101912.69
2022-08-12T03:26:45.485Z,101913.88
2022-08-12T03:29:50.307Z,101908.09
2022-08-12T03:32:55.408Z,101914.56
2022-08-12T03:35:59.822Z,101904.91
2022-08-12T03:39:17.169Z,101910.50
2022-08-12T03:42:38.253Z,101905.47
2022-08-12T03:45:58.868Z,101903.13
2022-08-12T03:49:19.787Z,101908.94
2022-08-12T03:52:40.250Z,101917.47
2022-08-12T03:56:00.765Z,101910.69
2022-08-12T03:59:23.557Z,101910.19
2022-08-12T04:02:25.608Z,101914.91
2022-08-12T04:05:54.260Z,101908.91
2022-08-12T04:08:57.598Z,101901.19
2022-08-12T04:12:17.611Z,101905.91
2022-08-12T04:15:20.209Z,101900.97
2022-08-12T04:18:23.584Z,101899.50
2022-08-12T04:21:25.986Z,101903.47
2022-08-12T04:24:29.137Z,101906.38
2022-08-12T04:27:32.379Z,101897.66
2022-08-12T04:30:35.797Z,101896.91
2022-08-12T04:33:37.637Z,101903.97
2022-08-12T04:36:41.009Z,101899.59
2022-08-12T04:39:44.821Z,101911.19
2022-08-12T04:42:46.646Z,101913.03
2022-08-12T04:45:49.454Z,101913.97
2022-08-12T04:48:52.128Z,101914.09
2022-08-12T04:51:59.213Z,101901.75
2022-08-12T04:55:01.943Z,101901.41
2022-08-12T04:58:03.695Z,101902.72
2022-08-12T05:01:06.582Z,101912.91
2022-08-12T05:04:09.969Z,101907.53
2022-08-12T05:07:11.820Z,101904.84
2022-08-12T05:10:13.868Z,101904.84
2022-08-12T05:13:29.512Z,101906.56
2022-08-12T05:16:33.065Z,101895.34
2022-08-12T05:19:36.116Z,101893.06
2022-08-12T05:22:39.236Z,101900.22
2022-08-12T05:25:43.361Z,101899.56
2022-08-12T05:28:46.249Z,101910.31
2022-08-12T05:31:49.645Z,101915.59
2022-08-12T05:34:51.681Z,101911.91
2022-08-12T05:38:13.588Z,101909.56
2022-08-12T05:41:21.385Z,101908.84
2022-08-12T05:44:23.047Z,101915.88
2022-08-12T05:47:24.716Z,101912.78
2022-08-12T05:50:47.281Z,101915.00
2022-08-12T05:53:48.922Z,101912.59
2022-08-12T05:56:51.765Z,101915.06
2022-08-12T05:59:53.600Z,101918.97
2022-08-12T06:03:02.714Z,101911.50
2022-08-12T06:06:07.148Z,101907.50
2022-08-12T06:09:13.256Z,101914.25
2022-08-12T06:12:18.010Z,101913.88
2022-08-12T06:15:21.176Z,101917.81
2022-08-12T06:18:26.627Z,101920.88
2022-08-12T06:21:31.394Z,101921.97
2022-08-12T06:24:33.381Z,101921.34
2022-08-12T06:28:06.531Z,101918.03
2022-08-12T06:31:25.903Z,101923.69
2022-08-12T06:35:27.249Z,101927.44
2022-08-12T06:37:58.020Z,101924.75
2022-08-12T06:41:19.731Z,101925.75
2022-08-12T06:44:21.356Z,101927.44
2022-08-12T06:47:22.911Z,101916.63
2022-08-12T06:50:26.831Z,101919.25
2022-08-12T06:53:34.065Z,101913.09
2022-08-12T06:59:58.284Z,101909.81
2022-08-12T07:03:01.352Z,101917.00
2022-08-12T07:06:25.358Z,101914.34
2022-08-12T07:09:58.040Z,101915.38
2022-08-12T07:12:54.984Z,101916.31
2022-08-12T07:15:56.862Z,101924.34
2022-08-12T07:19:00.094Z,101918.13
2022-08-12T07:22:06.480Z,101921.72
2022-08-12T07:25:27.053Z,101923.66
2022-08-12T07:28:31.438Z,101932.69
2022-08-12T07:31:33.104Z,101932.72
2022-08-12T07:34:34.709Z,101933.59
2022-08-12T07:37:41.954Z,101934.47
2022-08-12T07:40:43.756Z,101939.16
2022-08-12T07:43:52.019Z,101939.06
2022-08-12T07:46:53.584Z,101933.59
2022-08-12T07:50:05.746Z,101936.13
2022-08-12T07:53:08.257Z,101936.72
2022-08-12T07:56:10.880Z,101933.88
2022-08-12T07:59:12.634Z,101932.44
2022-08-12T08:02:14.174Z,101932.59
2022-08-12T08:05:16.289Z,101931.72
2022-08-12T08:08:24.791Z,101934.44
2022-08-12T08:11:45.540Z,101939.84
2022-08-12T08:14:48.351Z,101939.53
2022-08-12T08:18:04.181Z,101937.22
2022-08-12T08:21:06.127Z,101936.75
2022-08-12T08:24:16.131Z,101941.00
2022-08-12T08:27:17.847Z,101929.44
2022-08-12T08:30:19.613Z,101934.81
2022-08-12T08:33:55.415Z,101932.22
2022-08-12T08:36:45.420Z,101939.59
2022-08-12T08:39:47.138Z,101933.72
2022-08-12T08:42:51.354Z,101932.97
2022-08-12T08:45:55.510Z,101940.19
2022-08-12T08:48:59.546Z,101936.56
2022-08-12T08:52:01.290Z,101929.38
2022-08-12T08:55:04.304Z,101935.75
2022-08-12T08:58:06.401Z,101937.72
2022-08-12T09:01:08.115Z,101939.47
2022-08-12T09:05:07.306Z,101936.84
2022-08-12T09:07:51.360Z,101932.50
2022-08-12T09:12:06.559Z,101932.59
2022-08-12T09:18:08.510Z,101928.69
2022-08-12T09:21:10.701Z,101929.59
2022-08-12T09:24:12.546Z,101925.59
2022-08-12T09:27:17.505Z,101922.94
2022-08-12T09:30:42.107Z,101919.44
2022-08-12T09:34:28.602Z,101925.28
2022-08-12T09:37:19.443Z,101923.16
2022-08-12T09:40:57.167Z,101918.28
2022-08-12T09:44:06.237Z,101916.66
2022-08-12T09:47:10.825Z,101912.81
2022-08-12T09:50:20.609Z,101920.19
2022-08-12T09:53:29.277Z,101910.03
2022-08-12T09:56:58.399Z,101907.81
2022-08-12T10:00:13.649Z,101901.72
2022-08-12T10:03:31.448Z,101908.19
2022-08-12T10:06:36.570Z,101900.13
2022-08-12T10:09:57.938Z,101903.16
2022-08-12T10:13:37.647Z,101898.69
2022-08-12T10:16:44.394Z,101897.59
2022-08-12T10:19:52.006Z,101896.03
2022-08-12T10:22:58.763Z,101902.59
2022-08-12T10:26:37.278Z,101888.53
2022-08-12T10:30:03.804Z,101886.72
2022-08-12T10:33:04.632Z,101882.34
2022-08-12T10:36:21.006Z,101881.97
2022-08-12T10:40:01.942Z,101877.91
2022-08-12T10:43:20.643Z,101878.16
2022-08-12T10:46:22.332Z,101868.47
2022-08-12T10:50:03.113Z,101866.47
2022-08-12T10:52:56.145Z,101859.50
2022-08-12T10:55:57.886Z,101859.84
2022-08-12T10:59:05.396Z,101854.94
2022-08-12T11:04:23.367Z,101857.69
2022-08-12T11:07:06.193Z,101848.50
2022-08-12T11:08:57.115Z,101845.31
2022-08-12T11:12:34.712Z,101848.00
2022-08-12T11:16:04.266Z,101842.78
2022-08-12T11:18:47.467Z,101842.66
2022-08-12T11:22:02.890Z,101833.06
2022-08-12T11:25:10.578Z,101831.88
2022-08-12T11:28:14.926Z,101832.41
2022-08-12T11:31:17.701Z,101826.56
2022-08-12T11:34:53.085Z,101830.44
2022-08-12T11:37:58.009Z,101822.97
2022-08-12T11:41:02.366Z,101817.38
2022-08-12T11:44:35.418Z,101828.41
2022-08-12T11:47:25.725Z,101815.19
2022-08-12T11:50:32.232Z,101820.09
2022-08-12T11:53:57.543Z,101816.09
2022-08-12T11:56:59.495Z,101812.69
2022-08-12T12:03:25.021Z,101806.53
2022-08-12T12:06:53.268Z,101798.72
2022-08-12T12:09:55.766Z,101805.94
2022-08-12T12:12:57.447Z,101807.66
2022-08-12T12:16:00.241Z,101798.38
2022-08-12T12:19:01.916Z,101803.09
2022-08-12T12:22:03.743Z,101809.22
2022-08-12T12:25:12.549Z,101798.25
2022-08-12T12:28:36.520Z,101797.19
2022-08-12T12:32:10.630Z,101794.25
2022-08-12T12:35:44.528Z,101787.25
2022-08-12T12:38:25.295Z,101785.78
2022-08-12T12:42:54.337Z,101789.78
2022-08-12T12:44:51.030Z,101781.72
2022-08-12T12:48:17.281Z,101767.59
2022-08-12T12:51:49.136Z,101774.38
2022-08-12T12:54:52.677Z,101762.56
2022-08-12T12:58:00.355Z,101777.97
2022-08-12T13:01:04.898Z,101772.50
2022-08-12T13:04:24.691Z,101762.56
2022-08-12T13:07:54.726Z,101763.44
2022-08-12T13:10:50.311Z,101760.25
2022-08-12T13:14:09.118Z,101759.41
2022-08-12T13:17:17.564Z,101755.41
2022-08-12T13:20:38.498Z,101755.00
2022-08-12T13:23:46.501Z,101754.38
2022-08-12T13:26:49.727Z,101754.38
2022-08-12T13:29:58.162Z,101755.44
2022-08-12T13:33:06.211Z,101752.91
2022-08-12T13:36:21.011Z,101748.66
2022-08-12T13:39:24.502Z,101751.84
2022-08-12T13:42:29.083Z,101755.84
2022-08-12T13:45:31.812Z,101749.94
2022-08-12T13:48:33.450Z,101749.09
2022-08-12T13:51:41.256Z,101749.75
2022-08-12T13:54:43.319Z,101733.88
2022-08-12T13:58:00.021Z,101731.56
2022-08-12T14:01:05.682Z,101739.16
2022-08-12T14:04:11.610Z,101734.09
2022-08-12T14:07:13.733Z,101728.38
2022-08-12T14:10:37.793Z,101730.06
2022-08-12T14:14:03.575Z,101727.94
2022-08-12T14:17:05.750Z,101721.16
2022-08-12T14:20:13.249Z,101723.31
2022-08-12T14:24:01.521Z,101718.03
2022-08-12T14:26:39.780Z,101714.44
2022-08-12T14:30:05.106Z,101719.28
2022-08-12T14:33:09.125Z,101711.03
2022-08-12T14:36:13.388Z,101714.22
2022-08-12T14:39:17.488Z,101710.00
2022-08-12T14:42:19.997Z,101703.25
2022-08-12T14:45:23.007Z,101700.28
2022-08-12T14:48:25.535Z,101703.44
2022-08-12T14:52:42.744Z,101696.88
2022-08-12T14:58:14.219Z,101700.50
2022-08-12T15:01:35.076Z,101703.44
2022-08-12T15:04:36.738Z,101694.56
2022-08-12T15:07:49.921Z,101694.75
2022-08-12T15:10:55.534Z,101682.94
2022-08-12T15:13:59.184Z,101679.56
2022-08-12T15:17:01.169Z,101678.25
2022-08-12T15:20:28.413Z,101672.13
2022-08-12T15:23:28.943Z,101670.88
2022-08-12T15:26:40.866Z,101671.31
2022-08-12T15:29:42.688Z,101661.81
2022-08-12T15:32:48.924Z,101659.06
2022-08-12T15:35:54.014Z,101665.16
2022-08-12T15:38:55.979Z,101659.91
2022-08-12T15:42:01.985Z,101662.41
2022-08-12T15:45:08.461Z,101663.94
2022-08-12T15:48:16.666Z,101656.34
2022-08-12T15:51:59.141Z,101657.75
2022-08-12T15:54:52.731Z,101659.03
2022-08-12T15:58:02.081Z,101651.88
2022-08-12T16:01:08.796Z,101647.88
2022-08-12T16:04:13.640Z,101655.03
2022-08-12T16:07:29.834Z,101648.91
2022-08-12T16:10:33.529Z,101645.53
2022-08-12T16:13:36.421Z,101648.06
2022-08-12T16:16:38.073Z,101642.97
2022-08-12T16:20:03.922Z,101643.63
2022-08-12T16:23:26.990Z,101641.06
2022-08-12T16:26:36.678Z,101633.06
2022-08-12T16:29:53.357Z,101632.22
2022-08-12T16:32:58.478Z,101626.72
2022-08-12T16:36:00.806Z,101623.97
2022-08-12T16:39:04.157Z,101617.22
2022-08-12T16:42:06.832Z,101622.50
2022-08-12T16:45:10.640Z,101614.88
2022-08-12T16:48:33.903Z,101617.41
2022-08-12T16:51:40.319Z,101614.66
2022-08-12T16:54:44.249Z,101606.84
2022-08-12T16:57:48.696Z,101613.78
2022-08-12T17:00:51.445Z,101612.09
2022-08-12T17:04:09.088Z,101611.69
2022-08-12T17:07:17.051Z,101617.34
2022-08-12T17:10:36.930Z,101610.31
2022-08-12T17:13:53.180Z,101613.03
2022-08-12T17:16:55.813Z,101612.81
2022-08-12T17:20:34.828Z,101612.81
2022-08-12T17:23:33.388Z,101603.91
2022-08-12T17:26:53.849Z,101602.19
2022-08-12T17:30:00.780Z,101608.69
2022-08-12T17:33:07.038Z,101602.31
2022-08-12T17:36:10.690Z,101606.69
2022-08-12T17:39:12.703Z,101614.50
2022-08-12T17:42:32.615Z,101603.28
2022-08-12T17:45:43.132Z,101607.03
2022-08-12T17:48:55.196Z,101600.69
2022-08-12T17:52:02.423Z,101613.06
2022-08-12T17:55:33.579Z,101605.69
2022-08-12T17:58:37.567Z,101610.28
2022-08-12T18:01:44.196Z,101614.44
2022-08-12T18:05:04.526Z,101619.63
2022-08-12T18:08:11.112Z,101621.47
2022-08-12T18:12:05.833Z,101621.84
2022-08-12T18:15:01.418Z,101624.91
2022-08-12T18:18:03.751Z,101624.66
2022-08-12T18:21:09.108Z,101622.06
2022-08-12T18:24:19.822Z,101624.09
2022-08-12T18:27:30.061Z,101628.34
2022-08-12T18:30:35.997Z,101618.13
2022-08-12T18:33:45.897Z,101618.00
2022-08-12T18:36:50.285Z,101623.13
2022-08-12T18:40:12.530Z,101622.72
2022-08-12T18:43:19.486Z,101616.06
2022-08-12T18:46:29.251Z,101625.59
2022-08-12T18:49:38.706Z,101628.72
2022-08-12T18:52:44.876Z,101636.72
2022-08-12T18:55:57.382Z,101637.19
2022-08-12T18:59:02.950Z,101635.56
2022-08-12T19:02:19.743Z,101644.34
2022-08-12T19:05:53.039Z,101637.94
2022-08-12T19:08:49.392Z,101639.09
2022-08-12T19:12:10.635Z,101643.47
2022-08-12T19:15:24.105Z,101645.66
2022-08-12T19:18:29.259Z,101645.91
2022-08-12T19:21:37.128Z,101643.91
2022-08-12T19:24:57.968Z,101643.78
2022-08-12T19:27:59.688Z,101651.84
2022-08-12T19:31:55.872Z,101653.56
2022-08-12T19:38:19.106Z,101658.94
2022-08-12T19:41:22.983Z,101647.03
2022-08-12T19:44:26.478Z,101646.06
2022-08-12T19:47:31.240Z,101653.25
2022-08-12T19:50:40.965Z,101652.25
2022-08-12T19:53:58.169Z,101655.00
2022-08-12T19:57:01.512Z,101659.78
2022-08-12T20:00:07.409Z,101659.66
2022-08-12T20:03:39.319Z,101659.81
2022-08-12T20:06:51.615Z,101668.50
2022-08-12T20:09:55.883Z,101671.09
2022-08-12T20:13:18.556Z,101667.38
2022-08-12T20:16:51.110Z,101666.72
2022-08-12T20:20:01.078Z,101664.00
2022-08-12T20:23:08.829Z,101666.00
2022-08-12T20:26:11.223Z,101667.06
2022-08-12T20:29:13.684Z,101676.22
2022-08-12T20:32:15.328Z,101675.22
2022-08-12T20:35:24.956Z,101672.50
2022-08-12T20:38:42.181Z,101672.16
2022-08-12T20:41:50.956Z,101669.94
2022-08-12T20:44:54.176Z,101669.88
2022-08-12T20:48:04.127Z,101680.41
2022-08-12T20:51:10.415Z,101676.84
2022-08-12T20:54:22.214Z,101677.13
2022-08-12T20:57:24.035Z,101675.25
2022-08-12T21:00:28.410Z,101677.25
2022-08-12T21:03:52.642Z,101682.50
2022-08-12T21:07:04.664Z,101685.31
2022-08-12T21:10:11.536Z,101684.59
2022-08-12T21:13:20.616Z,101685.72
2022-08-12T21:16:35.290Z,101686.34
2022-08-12T21:19:52.955Z,101686.84
2022-08-12T21:22:56.076Z,101678.88
2022-08-12T21:26:01.262Z,101688.00
2022-08-12T21:29:12.517Z,101694.47
2022-08-12T21:32:39.366Z,101694.78
2022-08-12T21:35:40.158Z,101689.66
2022-08-12T21:38:43.143Z,101687.28
2022-08-12T21:41:50.065Z,101685.91
2022-08-12T21:45:46.239Z,101685.34
2022-08-12T21:48:14.969Z,101688.41
2022-08-12T21:51:23.001Z,101694.16
2022-08-12T21:54:26.081Z,101696.94
2022-08-12T21:57:36.379Z,101696.09
2022-08-12T22:00:52.275Z,101694.97
2022-08-12T22:04:12.927Z,101695.59
2022-08-12T22:07:18.601Z,101689.78
2022-08-12T22:10:28.270Z,101702.50
2022-08-12T22:14:08.001Z,101698.22
2022-08-12T22:16:55.924Z,101694.44
2022-08-12T22:19:57.589Z,101696.50
2022-08-12T22:23:00.371Z,101692.72
2022-08-12T22:26:08.062Z,101697.50
2022-08-12T22:29:29.061Z,101701.44
2022-08-12T22:32:30.839Z,101708.09
2022-08-12T22:35:56.262Z,101707.28
2022-08-12T22:38:59.462Z,101703.06
2022-08-12T22:42:24.328Z,101703.13
2022-08-12T22:45:48.405Z,101710.56
2022-08-12T22:48:52.515Z,101705.31
2022-08-12T22:52:00.999Z,101708.06
2022-08-12T22:55:06.221Z,101699.97
2022-08-12T22:58:12.522Z,101702.56
2022-08-12T23:01:21.269Z,101695.19
2022-08-12T23:04:36.020Z,101697.78
2022-08-12T23:07:58.818Z,101699.22
2022-08-12T23:11:06.086Z,101701.63
2022-08-12T23:14:11.727Z,101700.47
2022-08-12T23:17:40.376Z,101701.06
2022-08-12T23:20:34.887Z,101699.94
2022-08-12T23:23:57.573Z,101705.78
2022-08-12T23:27:18.340Z,101707.91
2022-08-12T23:30:31.205Z,101701.22
2022-08-12T23:34:02.081Z,101708.03
2022-08-12T23:36:59.600Z,101700.78
2022-08-12T23:40:14.246Z,101704.22
2022-08-12T23:43:17.775Z,101696.81
2022-08-12T23:46:25.626Z,101698.38
2022-08-12T23:49:56.208Z,101699.03
2022-08-12T23:52:51.604Z,101699.72
2022-08-12T23:55:56.864Z,101702.28
2022-08-12T23:59:00.056Z,101695.72
